Time;durP1;ratioP1;P1;durP2;ratioP2;P2;SDS_P1;SDS_P2;PMS_P1;PMS_P2;Temp;Humidity;BMP_temperature;BMP_pressure;BME280_temperature;BME280_humidity;BME280_pressure;Samples;Min_cycle;Max_cycle;Signal;HPM_P1;HPM_P2
2022/03/13 00:02:04;;;;;;;3.97;1.80;;;11.00;66.90;;;;;;5023522;28;20052;-85
2022/03/13 00:04:31;;;;;;;3.60;1.77;;;11.00;67.30;;;;;;5018097;28;20163;-81
2022/03/13 00:07:09;;;;;;;3.92;1.65;;;11.00;67.00;;;;;;5034979;28;20094;-85
2022/03/13 00:09:38;;;;;;;4.22;1.48;;;11.00;67.00;;;;;;5022117;28;20073;-83
2022/03/13 00:12:08;;;;;;;4.15;1.80;;;10.90;67.00;;;;;;5021754;28;20409;-83
2022/03/13 00:18:19;;;;;;;4.10;1.85;;;10.90;67.00;;;;;;5054891;28;20136;-83
2022/03/13 00:25:54;;;;;;;3.13;1.40;;;10.80;67.10;;;;;;5055469;28;20527;-81
2022/03/13 00:28:21;;;;;;;3.92;2.17;;;10.70;67.20;;;;;;5036815;28;20144;-81
2022/03/13 00:31:06;;;;;;;3.95;1.65;;;10.70;67.40;;;;;;5045902;28;20053;-81
2022/03/13 00:34:44;;;;;;;4.55;2.25;;;10.60;67.50;;;;;;5016135;28;20490;-80
2022/03/13 00:37:18;;;;;;;4.03;1.70;;;10.60;67.60;;;;;;4976797;28;20050;-80
2022/03/13 00:40:39;;;;;;;3.93;1.77;;;10.50;67.70;;;;;;4978612;28;20042;-80
2022/03/13 00:43:15;;;;;;;4.10;2.13;;;10.40;67.70;;;;;;4963135;28;20340;-80
2022/03/13 00:50:49;;;;;;;3.95;2.08;;;10.40;67.70;;;;;;5013236;28;20029;-80
2022/03/13 00:53:32;;;;;;;3.97;1.52;;;10.40;67.60;;;;;;4942019;28;20086;-81
2022/03/13 00:56:08;;;;;;;3.05;1.38;;;10.40;67.60;;;;;;4962464;28;20503;-79
2022/03/13 00:58:35;;;;;;;3.28;1.80;;;10.40;67.60;;;;;;4977362;28;20053;-85
2022/03/13 01:01:07;;;;;;;3.47;1.45;;;10.50;67.60;;;;;;4945575;28;20075;-83
2022/03/13 01:03:35;;;;;;;3.95;1.80;;;10.50;67.60;;;;;;4961234;28;20047;-83
2022/03/13 01:06:24;;;;;;;4.10;1.80;;;10.50;67.60;;;;;;5017733;28;20037;-83
2022/03/13 01:08:54;;;;;;;2.55;1.20;;;10.60;67.60;;;;;;5016877;28;20132;-83
2022/03/13 01:11:27;;;;;;;3.78;1.90;;;10.60;67.60;;;;;;5017763;28;20111;-83
2022/03/13 01:14:05;;;;;;;3.50;2.10;;;10.60;67.60;;;;;;5000925;28;20041;-83
2022/03/13 01:16:48;;;;;;;3.92;1.73;;;10.60;67.60;;;;;;5017990;28;20033;-83
2022/03/13 01:19:29;;;;;;;4.60;2.03;;;10.60;67.70;;;;;;5000416;28;20050;-82
2022/03/13 01:22:35;;;;;;;3.05;1.42;;;10.60;67.80;;;;;;5000257;28;20049;-78
2022/03/13 01:25:03;;;;;;;3.80;1.67;;;10.60;67.70;;;;;;5016574;28;20073;-79
2022/03/13 01:27:31;;;;;;;3.22;1.40;;;10.60;67.80;;;;;;5018336;28;20053;-78
2022/03/13 01:29:59;;;;;;;3.20;1.70;;;10.60;67.90;;;;;;5036258;28;20045;-78
2022/03/13 01:32:33;;;;;;;3.97;1.98;;;10.50;67.90;;;;;;5036714;28;20051;-78
2022/03/13 01:35:00;;;;;;;3.95;1.85;;;10.50;67.90;;;;;;5019852;28;20107;-78
2022/03/13 01:37:35;;;;;;;4.22;1.90;;;10.50;67.90;;;;;;5036237;28;20132;-78
2022/03/13 01:40:09;;;;;;;3.05;1.50;;;10.60;68.00;;;;;;5019753;28;20072;-78
2022/03/13 01:42:40;;;;;;;4.60;2.15;;;10.50;68.00;;;;;;5019739;28;20489;-78
2022/03/13 01:45:12;;;;;;;5.53;2.28;;;10.50;68.10;;;;;;5036250;28;20057;-78
2022/03/13 01:47:39;;;;;;;3.72;1.75;;;10.50;68.10;;;;;;5035947;28;20049;-78
2022/03/13 01:50:09;;;;;;;5.15;2.42;;;10.50;68.20;;;;;;5035982;28;20420;-78
2022/03/13 01:52:40;;;;;;;4.15;1.77;;;10.40;68.20;;;;;;5037075;28;20488;-78
2022/03/13 01:55:08;;;;;;;4.40;2.42;;;10.40;68.30;;;;;;5033068;28;20052;-78
2022/03/13 01:57:37;;;;;;;4.38;2.70;;;10.40;68.40;;;;;;5035731;28;20083;-79
2022/03/13 02:00:08;;;;;;;4.45;2.38;;;10.30;68.40;;;;;;5035653;28;20037;-78
2022/03/13 02:02:47;;;;;;;5.00;2.55;;;10.30;68.40;;;;;;5048855;28;20071;-78
2022/03/13 02:05:32;;;;;;;5.32;2.38;;;10.20;68.50;;;;;;5036299;28;20135;-78
2022/03/13 02:08:00;;;;;;;3.53;2.03;;;10.20;68.50;;;;;;5054488;28;20049;-78
2022/03/13 02:10:30;;;;;;;5.05;2.58;;;10.10;68.70;;;;;;5039795;28;20500;-79
2022/03/13 02:12:58;;;;;;;5.35;2.90;;;10.00;68.80;;;;;;5038708;28;20539;-78
2022/03/13 02:15:30;;;;;;;4.28;2.33;;;10.00;68.80;;;;;;5038796;28;20122;-78
2022/03/13 02:18:03;;;;;;;4.55;2.08;;;9.90;68.90;;;;;;5032782;28;20044;-78
2022/03/13 02:20:38;;;;;;;4.10;2.47;;;9.90;69.00;;;;;;5038639;28;20357;-78
2022/03/13 02:23:23;;;;;;;5.40;3.00;;;9.90;69.00;;;;;;5038705;28;20045;-78
2022/03/13 02:25:56;;;;;;;5.45;2.50;;;9.80;69.00;;;;;;5073030;28;20073;-78
2022/03/13 02:28:32;;;;;;;4.95;2.63;;;9.80;69.10;;;;;;5038312;28;20106;-78
2022/03/13 02:31:02;;;;;;;5.38;2.58;;;9.70;69.20;;;;;;5038194;28;20052;-78
2022/03/13 02:33:30;;;;;;;6.47;2.72;;;9.70;69.20;;;;;;5055282;28;20064;-78
2022/03/13 02:36:01;;;;;;;6.00;3.40;;;9.70;69.30;;;;;;5072892;28;20032;-78
2022/03/13 02:38:30;;;;;;;;;;;9.70;69.20;;;;;;5055413;28;20041;-78
2022/03/13 02:40:58;;;;;;;4.90;2.45;;;9.70;69.30;;;;;;5038365;28;19966;-78
2022/03/13 02:43:26;;;;;;;5.15;2.60;;;9.60;69.30;;;;;;5038333;28;20094;-78
2022/03/13 02:45:53;;;;;;;5.35;2.95;;;9.60;69.40;;;;;;5054657;28;20064;-78
2022/03/13 02:48:21;;;;;;;5.38;2.25;;;9.60;69.40;;;;;;5021857;28;20044;-78
2022/03/13 02:50:48;;;;;;;5.35;2.72;;;9.60;69.40;;;;;;5021733;28;20044;-78
2022/03/13 02:53:17;;;;;;;6.38;2.88;;;9.60;69.40;;;;;;5037914;28;20044;-78
2022/03/13 02:55:46;;;;;;;4.30;2.35;;;9.60;69.40;;;;;;5038507;28;20048;-78
2022/03/13 02:58:17;;;;;;;4.97;2.70;;;9.60;69.50;;;;;;5038445;28;20413;-78
2022/03/13 03:00:49;;;;;;;6.25;3.42;;;9.50;70.00;;;;;;5038547;28;20140;-78
2022/03/13 03:03:21;;;;;;;5.50;3.20;;;9.50;69.40;;;;;;5054388;28;20063;-78
2022/03/13 03:05:49;;;;;;;6.32;3.03;;;9.50;69.50;;;;;;5054427;28;20052;-78
2022/03/13 03:08:19;;;;;;;5.95;3.35;;;9.50;69.50;;;;;;5038473;28;20059;-78
2022/03/13 03:10:46;;;;;;;6.93;3.50;;;9.50;69.50;;;;;;5072603;28;20182;-78
2022/03/13 03:13:15;;;;;;;6.47;3.78;;;9.50;69.50;;;;;;5021822;28;20052;-78
2022/03/13 03:15:42;;;;;;;6.28;3.42;;;9.50;69.50;;;;;;5054549;28;20374;-78
2022/03/13 03:18:10;;;;;;;6.75;3.65;;;9.50;69.40;;;;;;5038128;28;20481;-78
2022/03/13 03:20:38;;;;;;;6.93;3.10;;;9.50;69.40;;;;;;5037855;28;20049;-78
2022/03/13 03:23:06;;;;;;;6.30;3.40;;;9.50;69.30;;;;;;5038021;28;20052;-78
2022/03/13 03:25:33;;;;;;;5.15;2.95;;;9.50;69.30;;;;;;5054313;28;20143;-78
2022/03/13 03:28:00;;;;;;;6.65;3.60;;;9.50;69.30;;;;;;5037997;28;20120;-78
2022/03/13 03:30:29;;;;;;;5.25;3.63;;;9.50;69.30;;;;;;5021599;28;20106;-78
2022/03/13 03:33:00;;;;;;;6.47;3.42;;;9.40;69.30;;;;;;5072179;28;20041;-78
2022/03/13 03:35:27;;;;;;;6.38;3.80;;;9.40;69.40;;;;;;5054209;28;20155;-77
2022/03/13 03:37:55;;;;;;;5.75;3.10;;;9.30;69.50;;;;;;5054276;28;20041;-78
2022/03/13 03:40:25;;;;;;;5.80;3.38;;;9.30;69.60;;;;;;5038947;28;20098;-78
2022/03/13 03:42:56;;;;;;;5.13;2.83;;;9.30;69.70;;;;;;5075433;28;20573;-78
2022/03/13 03:45:23;;;;;;;6.47;3.63;;;9.30;69.70;;;;;;5025385;28;20087;-78
2022/03/13 03:47:50;;;;;;;6.63;3.85;;;9.30;69.80;;;;;;5042152;28;20514;-78
2022/03/13 03:50:20;;;;;;;5.60;2.95;;;9.20;69.70;;;;;;5076365;28;20106;-78
2022/03/13 03:52:47;;;;;;;6.00;3.42;;;9.30;69.80;;;;;;5041442;28;20136;-78
2022/03/13 03:55:14;;;;;;;7.55;3.78;;;9.30;69.70;;;;;;5058009;28;20053;-77
2022/03/13 03:57:41;;;;;;;5.30;2.97;;;9.30;69.70;;;;;;5075958;28;20119;-77
2022/03/13 04:00:09;;;;;;;7.00;3.45;;;9.30;69.70;;;;;;5057821;28;20457;-77
2022/03/13 04:02:43;;;;;;;4.65;2.72;;;9.30;69.60;;;;;;5027472;28;20410;-77
2022/03/13 04:05:11;;;;;;;5.72;3.35;;;9.40;69.60;;;;;;5075992;28;20086;-78
2022/03/13 04:07:38;;;;;;;5.55;3.00;;;9.40;69.50;;;;;;5041603;28;20048;-78
2022/03/13 04:10:07;;;;;;;5.53;3.17;;;9.40;69.50;;;;;;5057913;28;20079;-77
2022/03/13 04:12:35;;;;;;;5.22;3.10;;;9.40;69.30;;;;;;5057778;28;20053;-77
2022/03/13 04:15:03;;;;;;;6.65;3.78;;;9.50;69.30;;;;;;5040996;28;20079;-77
2022/03/13 04:17:31;;;;;;;7.18;3.60;;;9.50;69.20;;;;;;5057758;28;20032;-77
2022/03/13 04:19:59;;;;;;;6.03;3.45;;;9.50;69.10;;;;;;5024659;28;20094;-77
2022/03/13 04:22:27;;;;;;;6.57;3.58;;;9.50;69.10;;;;;;5041548;28;20116;-77
2022/03/13 04:24:55;;;;;;;7.18;3.80;;;9.50;69.10;;;;;;5040945;28;20048;-78
2022/03/13 04:27:25;;;;;;;6.32;3.58;;;9.50;69.00;;;;;;5041197;28;20098;-78
2022/03/13 04:29:53;;;;;;;6.55;3.80;;;9.50;68.90;;;;;;5025191;28;20075;-79
2022/03/13 04:32:22;;;;;;;5.25;2.88;;;9.50;68.90;;;;;;5040709;28;20044;-78
2022/03/13 04:34:50;;;;;;;6.82;3.42;;;9.50;68.90;;;;;;5025111;28;20071;-78
2022/03/13 04:37:18;;;;;;;6.55;3.53;;;9.50;68.80;;;;;;5040981;28;20076;-78
2022/03/13 04:39:49;;;;;;;6.15;3.30;;;9.50;68.70;;;;;;5024477;28;20040;-77
2022/03/13 04:42:17;;;;;;;5.03;3.25;;;9.50;68.70;;;;;;5056984;28;20419;-77
2022/03/13 04:44:45;;;;;;;5.95;3.50;;;9.50;68.50;;;;;;5057185;28;20493;-78
2022/03/13 04:47:12;;;;;;;6.28;3.72;;;9.50;68.40;;;;;;5057320;28;20124;-78
2022/03/13 04:49:40;;;;;;;5.65;3.30;;;9.50;68.30;;;;;;5040804;28;20059;-78
2022/03/13 04:52:13;;;;;;;6.20;3.17;;;9.50;68.30;;;;;;5040944;28;20048;-78
2022/03/13 04:54:40;;;;;;;6.78;3.92;;;9.50;68.30;;;;;;5056747;28;20431;-78
2022/03/13 04:57:07;;;;;;;6.32;3.28;;;9.50;68.20;;;;;;5040358;28;20048;-78
2022/03/13 04:59:34;;;;;;;6.07;3.42;;;9.50;68.10;;;;;;5040125;28;20044;-78
2022/03/13 05:02:02;;;;;;;6.82;3.65;;;9.50;68.00;;;;;;5037807;28;20119;-78
2022/03/13 05:04:31;;;;;;;7.03;3.40;;;9.50;68.00;;;;;;5021270;28;20045;-78
2022/03/13 05:06:59;;;;;;;5.93;2.90;;;9.50;68.00;;;;;;5020293;28;20099;-78
2022/03/13 05:09:27;;;;;;;4.60;2.47;;;9.40;67.80;;;;;;5019104;28;20057;-78
2022/03/13 05:11:57;;;;;;;4.85;3.10;;;9.40;67.80;;;;;;5020108;28;20444;-78
2022/03/13 05:14:24;;;;;;;4.93;2.78;;;9.40;67.70;;;;;;5020637;28;20049;-78
2022/03/13 05:16:51;;;;;;;5.28;2.97;;;9.40;67.70;;;;;;5020297;28;20195;-78
2022/03/13 05:19:18;;;;;;;5.22;2.35;;;9.40;67.70;;;;;;5020291;28;20434;-78
2022/03/13 05:21:45;;;;;;;4.60;2.30;;;9.40;67.70;;;;;;5004228;28;20068;-78
2022/03/13 05:24:12;;;;;;;5.10;2.45;;;9.40;67.80;;;;;;5020071;28;20501;-78
2022/03/13 05:26:39;;;;;;;6.50;3.00;;;9.40;67.80;;;;;;5003611;28;20049;-78
2022/03/13 05:29:07;;;;;;;5.45;2.85;;;9.40;68.30;;;;;;5003815;28;20048;-78
2022/03/13 05:31:34;;;;;;;5.28;3.00;;;9.40;67.70;;;;;;5019901;28;20132;-78
2022/03/13 05:34:03;;;;;;;5.00;2.40;;;9.40;67.60;;;;;;5020065;28;20049;-78
2022/03/13 05:36:30;;;;;;;5.45;2.63;;;9.40;67.50;;;;;;5036381;28;20037;-78
2022/03/13 05:38:57;;;;;;;4.85;1.83;;;9.40;67.40;;;;;;5019646;28;20056;-78
2022/03/13 05:41:25;;;;;;;5.18;2.80;;;9.40;67.40;;;;;;5003273;28;20073;-78
2022/03/13 05:43:52;;;;;;;6.53;2.55;;;9.30;67.40;;;;;;5019463;28;20128;-78
2022/03/13 05:46:19;;;;;;;4.07;2.22;;;9.40;67.30;;;;;;5003093;28;20448;-77
2022/03/13 05:48:47;;;;;;;5.05;2.78;;;9.40;67.30;;;;;;5036048;28;20052;-77
2022/03/13 05:51:14;;;;;;;6.43;3.22;;;9.30;67.10;;;;;;5003223;28;20037;-78
2022/03/13 05:53:41;;;;;;;5.15;2.90;;;9.40;67.00;;;;;;4987030;28;20493;-78
2022/03/13 05:56:08;;;;;;;4.43;2.50;;;9.30;66.80;;;;;;5003493;28;20128;-78
2022/03/13 05:58:35;;;;;;;5.95;3.17;;;9.30;66.70;;;;;;5003106;28;20041;-78
2022/03/13 06:01:06;;;;;;;3.83;1.92;;;9.30;66.60;;;;;;5035825;28;20103;-78
2022/03/13 06:03:38;;;;;;;4.75;2.40;;;9.40;66.60;;;;;;5036232;28;20527;-78
2022/03/13 06:06:05;;;;;;;5.07;2.60;;;9.30;66.50;;;;;;5038152;28;20048;-78
2022/03/13 06:08:34;;;;;;;3.85;2.30;;;9.40;66.50;;;;;;5038676;28;20691;-78
2022/03/13 06:11:01;;;;;;;5.28;2.42;;;9.30;66.30;;;;;;5039124;28;20040;-78
2022/03/13 06:13:28;;;;;;;3.88;2.03;;;9.40;66.30;;;;;;5055213;28;20098;-78
2022/03/13 06:15:58;;;;;;;5.03;2.33;;;9.30;66.20;;;;;;5038646;28;20507;-78
2022/03/13 06:18:27;;;;;;;5.78;2.38;;;9.40;66.20;;;;;;5039461;28;20036;-78
2022/03/13 06:20:54;;;;;;;5.88;2.80;;;9.40;66.00;;;;;;5055404;28;20071;-78
2022/03/13 06:23:23;;;;;;;4.85;2.40;;;9.40;65.80;;;;;;5073127;28;20052;-77
2022/03/13 06:25:57;;;;;;;3.72;2.15;;;9.30;65.70;;;;;;5055190;28;20052;-78
2022/03/13 06:28:26;;;;;;;4.68;2.25;;;9.40;65.60;;;;;;5022603;28;20048;-78
2022/03/13 06:30:55;;;;;;;7.57;2.83;;;9.40;65.60;;;;;;5022909;28;20094;-78
2022/03/13 06:33:30;;;;;;;4.25;2.10;;;9.40;65.50;;;;;;5009255;28;20041;-78
2022/03/13 06:35:57;;;;;;;3.50;1.75;;;9.40;65.40;;;;;;5038861;28;20040;-78
2022/03/13 06:38:25;;;;;;;4.68;2.28;;;9.40;65.30;;;;;;5039790;28;20846;-78
2022/03/13 06:40:52;;;;;;;5.43;2.85;;;9.40;65.20;;;;;;5038521;28;20040;-78
2022/03/13 06:43:19;;;;;;;4.65;1.92;;;9.40;65.10;;;;;;5054813;28;20040;-78
2022/03/13 06:45:46;;;;;;;3.80;2.10;;;9.40;65.00;;;;;;5073004;28;20076;-78
2022/03/13 06:48:15;;;;;;;2.80;1.70;;;9.40;65.00;;;;;;5038736;28;20055;-82
2022/03/13 06:50:43;;;;;;;4.30;2.28;;;9.40;64.90;;;;;;5022852;28;20052;-79
2022/03/13 06:53:10;;;;;;;4.82;2.35;;;9.50;64.80;;;;;;5022191;28;20041;-79
2022/03/13 06:55:37;;;;;;;5.05;2.13;;;9.50;64.70;;;;;;5022283;28;20526;-78
2022/03/13 06:58:04;;;;;;;3.55;1.88;;;9.50;65.20;;;;;;5054792;28;20037;-79
2022/03/13 07:00:32;;;;;;;3.90;2.00;;;9.50;64.50;;;;;;5054973;28;20040;-79
2022/03/13 07:02:59;;;;;;;4.00;1.98;;;9.60;64.40;;;;;;5054390;28;20519;-78
2022/03/13 07:05:26;;;;;;;4.30;2.30;;;9.60;64.30;;;;;;5037832;28;20144;-78
2022/03/13 07:07:54;;;;;;;4.75;2.13;;;9.60;64.20;;;;;;5021493;28;20505;-80
2022/03/13 07:10:27;;;;;;;4.25;2.22;;;9.60;64.60;;;;;;5023414;28;20052;-80
2022/03/13 07:12:57;;;;;;;4.07;2.10;;;9.60;63.90;;;;;;5037815;28;20040;-78
2022/03/13 07:15:26;;;;;;;3.42;1.73;;;9.60;63.70;;;;;;5038288;28;20049;-81
2022/03/13 07:17:56;;;;;;;4.13;1.85;;;9.60;63.70;;;;;;5022705;28;20064;-80
2022/03/13 07:20:24;;;;;;;4.78;2.55;;;9.60;63.70;;;;;;5037907;28;20040;-81
2022/03/13 07:22:51;;;;;;;5.25;2.60;;;9.60;63.50;;;;;;5054264;28;20048;-80
2022/03/13 07:25:21;;;;;;;4.38;2.10;;;9.60;63.40;;;;;;5072364;28;20032;-80
2022/03/13 07:27:50;;;;;;;3.72;2.50;;;9.60;63.40;;;;;;5021978;28;20143;-80
2022/03/13 07:30:17;;;;;;;4.15;2.20;;;9.60;63.30;;;;;;5038484;28;20037;-79
2022/03/13 07:32:45;;;;;;;3.65;1.90;;;9.60;63.20;;;;;;5037668;28;20048;-79
2022/03/13 07:35:12;;;;;;;4.25;1.88;;;9.70;63.10;;;;;;5037637;28;20475;-79
2022/03/13 07:37:42;;;;;;;4.45;2.20;;;9.70;62.80;;;;;;5022428;28;20068;-80
2022/03/13 07:40:10;;;;;;;4.78;2.13;;;9.70;62.60;;;;;;5037998;28;20102;-80
2022/03/13 07:42:37;;;;;;;4.45;2.35;;;9.80;62.50;;;;;;5054320;28;20041;-79
2022/03/13 07:45:09;;;;;;;4.93;2.13;;;9.80;62.40;;;;;;5039106;28;20064;-80
2022/03/13 07:47:36;;;;;;;4.55;1.95;;;9.80;62.30;;;;;;5037497;28;20147;-80
2022/03/13 07:50:05;;;;;;;5.38;2.08;;;9.90;62.20;;;;;;5038340;28;20086;-79
2022/03/13 07:52:32;;;;;;;4.20;2.10;;;9.90;62.10;;;;;;5037501;28;20404;-79
2022/03/13 07:54:59;;;;;;;3.90;2.05;;;9.90;62.50;;;;;;5038066;28;20041;-80
2022/03/13 07:57:28;;;;;;;4.05;2.05;;;9.90;61.90;;;;;;5021632;28;20044;-80
2022/03/13 07:59:56;;;;;;;4.22;2.00;;;9.90;61.70;;;;;;5038166;28;20452;-81
2022/03/13 08:02:23;;;;;;;4.45;1.90;;;9.90;61.60;;;;;;5018343;28;20570;-80
2022/03/13 08:04:51;;;;;;;5.93;2.60;;;10.00;61.50;;;;;;5017796;28;20052;-80
2022/03/13 08:07:21;;;;;;;4.75;2.13;;;10.00;61.40;;;;;;5034303;28;20045;-80
2022/03/13 08:09:49;;;;;;;4.25;2.00;;;10.10;61.20;;;;;;5002011;28;20087;-80
2022/03/13 08:12:16;;;;;;;4.30;2.10;;;10.10;61.10;;;;;;5017850;28;20048;-81
2022/03/13 08:14:46;;;;;;;4.53;2.28;;;10.20;60.90;;;;;;5018082;28;20132;-81
2022/03/13 08:17:15;;;;;;;4.05;2.28;;;10.20;60.60;;;;;;5017703;28;20056;-80
2022/03/13 08:19:43;;;;;;;4.57;2.33;;;10.30;60.50;;;;;;5051742;28;20045;-78
2022/03/13 08:22:10;;;;;;;5.07;2.67;;;10.40;60.30;;;;;;5004002;28;20048;-80
2022/03/13 08:24:37;;;;;;;4.82;2.35;;;10.40;60.20;;;;;;5002138;28;20051;-81
2022/03/13 08:27:04;;;;;;;4.72;2.78;;;10.40;60.00;;;;;;5001235;28;20049;-80
2022/03/13 08:29:31;;;;;;;4.68;1.98;;;10.40;59.90;;;;;;5036967;28;20110;-81
2022/03/13 08:31:58;;;;;;;5.53;2.30;;;10.40;59.80;;;;;;5021213;28;20053;-80
2022/03/13 08:34:28;;;;;;;5.15;2.67;;;10.40;59.80;;;;;;5055277;28;20136;-80
2022/03/13 08:37:01;;;;;;;4.70;2.42;;;10.40;59.70;;;;;;5022074;28;20045;-80
2022/03/13 08:39:32;;;;;;;4.65;2.22;;;10.40;59.60;;;;;;5055142;28;20065;-78
2022/03/13 08:42:09;;;;;;;4.63;2.70;;;10.50;59.50;;;;;;5029319;28;20052;-80
2022/03/13 08:45:16;;;;;;;5.20;2.67;;;10.50;59.30;;;;;;5020278;28;20053;-80
2022/03/13 08:47:43;;;;;;;3.92;2.20;;;10.60;59.10;;;;;;5016876;28;20085;-80
2022/03/13 08:54:34;;;;;;;4.75;2.17;;;10.60;58.90;;;;;;5034033;28;20034;-80
2022/03/13 08:57:02;;;;;;;5.57;2.75;;;10.60;58.90;;;;;;5018043;28;20037;-80
2022/03/13 09:00:13;;;;;;;6.28;2.90;;;10.50;58.70;;;;;;4983711;28;20479;-80
2022/03/13 09:03:51;;;;;;;4.07;2.03;;;10.60;58.70;;;;;;5034911;28;20405;-79
2022/03/13 09:07:10;;;;;;;4.15;2.00;;;10.60;58.80;;;;;;5033862;28;20413;-79
2022/03/13 09:10:02;;;;;;;5.07;2.30;;;10.70;58.50;;;;;;5032239;28;20493;-79
2022/03/13 09:12:34;;;;;;;5.10;2.30;;;10.70;58.20;;;;;;5002257;28;20041;-78
2022/03/13 09:15:02;;;;;;;5.35;2.70;;;10.80;58.20;;;;;;5016951;28;20592;-77
2022/03/13 09:17:30;;;;;;;5.72;2.67;;;10.90;58.00;;;;;;4984842;28;20049;-78
2022/03/13 09:19:58;;;;;;;6.70;3.42;;;10.90;57.60;;;;;;5016918;28;20053;-78
2022/03/13 09:22:30;;;;;;;6.03;3.00;;;11.00;57.20;;;;;;5000467;28;20107;-77
2022/03/13 09:24:59;;;;;;;7.43;3.83;;;11.00;57.10;;;;;;5033111;28;20041;-76
2022/03/13 09:27:27;;;;;;;6.05;3.20;;;11.10;57.00;;;;;;5016467;28;20052;-78
2022/03/13 09:29:57;;;;;;;4.53;2.70;;;11.10;57.50;;;;;;5000183;28;20051;-78
2022/03/13 09:32:28;;;;;;;5.75;2.60;;;11.20;56.70;;;;;;5000890;28;20041;-80
2022/03/13 09:35:11;;;;;;;5.72;2.75;;;11.30;56.60;;;;;;5032778;28;20041;-80
2022/03/13 09:38:07;;;;;;;5.35;2.90;;;11.50;56.50;;;;;;5000827;28;20064;-80
2022/03/13 09:40:35;;;;;;;4.47;2.45;;;11.50;56.20;;;;;;4918080;29;20074;-80
2022/03/13 09:43:21;;;;;;;6.70;3.50;;;11.70;56.20;;;;;;5034284;28;20053;-80
2022/03/13 09:50:49;;;;;;;4.28;2.30;;;11.70;56.00;;;;;;5037824;28;20006;-80
2022/03/13 09:53:35;;;;;;;6.30;3.13;;;11.70;56.00;;;;;;5033805;28;20064;-80
2022/03/13 09:56:44;;;;;;;6.35;3.60;;;11.60;55.90;;;;;;5032117;28;20041;-79
2022/03/13 09:59:33;;;;;;;6.05;3.40;;;11.60;55.70;;;;;;5031722;28;20136;-79
2022/03/13 10:02:23;;;;;;;5.88;3.20;;;11.50;55.80;;;;;;5002645;28;20046;-79
2022/03/13 10:05:14;;;;;;;4.05;2.22;;;11.50;55.90;;;;;;5033558;28;20052;-79
2022/03/13 10:07:57;;;;;;;6.53;3.03;;;11.50;56.00;;;;;;5015719;28;20052;-79
2022/03/13 10:10:39;;;;;;;7.45;3.70;;;11.60;55.80;;;;;;5015791;28;20045;-79
2022/03/13 10:13:40;;;;;;;5.55;2.90;;;11.70;55.70;;;;;;5017413;28;20052;-80
2022/03/13 10:16:19;;;;;;;6.30;3.42;;;11.70;55.30;;;;;;5033750;28;20060;-80
2022/03/13 10:19:29;;;;;;;7.90;3.90;;;11.70;55.30;;;;;;5000311;28;20493;-79
2022/03/13 10:22:27;;;;;;;4.22;2.70;;;11.80;55.30;;;;;;5034520;28;20041;-78
2022/03/13 10:24:54;;;;;;;5.72;2.80;;;11.80;55.40;;;;;;5032823;28;20045;-78
2022/03/13 10:27:21;;;;;;;5.00;3.10;;;11.80;55.30;;;;;;5000464;28;20108;-78
2022/03/13 10:29:48;;;;;;;5.97;3.33;;;11.90;55.30;;;;;;5035237;28;20452;-78
2022/03/13 10:32:15;;;;;;;6.35;3.65;;;11.90;55.30;;;;;;5032182;28;20863;-78
2022/03/13 10:34:54;;;;;;;5.45;2.95;;;11.90;55.20;;;;;;5002162;28;20041;-78
2022/03/13 10:37:39;;;;;;;5.65;2.50;;;12.00;55.10;;;;;;5052439;28;20041;-78
2022/03/13 10:40:33;;;;;;;4.93;2.65;;;12.20;55.10;;;;;;5012865;28;20045;-79
2022/03/13 10:43:06;;;;;;;4.55;2.42;;;12.30;54.90;;;;;;5012494;28;20053;-78
2022/03/13 10:45:43;;;;;;;5.43;2.75;;;12.40;54.90;;;;;;5012483;28;20063;-78
2022/03/13 10:48:20;;;;;;;5.50;3.05;;;12.60;54.70;;;;;;5012675;28;20125;-78
2022/03/13 10:50:52;;;;;;;7.75;3.97;;;12.80;54.60;;;;;;5012791;28;20103;-78
2022/03/13 10:53:21;;;;;;;6.30;3.60;;;12.90;54.60;;;;;;5030816;28;20116;-79
2022/03/13 10:56:14;;;;;;;6.50;3.67;;;12.90;54.50;;;;;;5028470;28;20044;-78
2022/03/13 10:58:48;;;;;;;5.80;2.90;;;13.00;54.60;;;;;;5016882;28;20057;-78
2022/03/13 11:01:17;;;;;;;5.72;3.25;;;13.10;54.70;;;;;;5037995;28;20053;-78
2022/03/13 11:03:53;;;;;;;7.07;3.33;;;13.20;54.70;;;;;;5036465;28;20049;-78
2022/03/13 11:06:25;;;;;;;8.35;3.88;;;13.30;54.50;;;;;;5023512;28;20404;-78
2022/03/13 11:08:58;;;;;;;7.03;3.83;;;13.40;54.40;;;;;;5015703;28;20053;-78
2022/03/13 11:11:27;;;;;;;;;;;13.50;54.30;;;;;;5036721;28;20098;-78
2022/03/13 11:13:57;;;;;;;6.20;3.67;;;13.50;54.30;;;;;;5035571;28;19974;-78
2022/03/13 11:16:27;;;;;;;5.22;2.88;;;13.70;54.50;;;;;;5052280;28;20041;-78
2022/03/13 11:19:05;;;;;;;5.72;3.50;;;13.80;54.40;;;;;;5053084;28;20075;-77
2022/03/13 11:21:32;;;;;;;5.95;2.63;;;13.90;54.20;;;;;;5035789;28;20080;-77
2022/03/13 11:24:04;;;;;;;6.65;3.65;;;13.90;54.30;;;;;;5037233;28;20090;-77
2022/03/13 11:26:31;;;;;;;6.53;3.67;;;13.90;54.20;;;;;;5019398;28;20056;-78
2022/03/13 11:28:58;;;;;;;7.57;3.63;;;13.90;54.30;;;;;;5052236;28;20519;-78
2022/03/13 11:31:38;;;;;;;6.95;3.70;;;13.80;54.40;;;;;;5020755;28;20053;-78
2022/03/13 11:34:22;;;;;;;6.25;3.60;;;13.80;54.30;;;;;;5010666;28;20437;-78
2022/03/13 11:36:50;;;;;;;5.40;3.10;;;13.80;54.50;;;;;;5028742;28;20050;-78
2022/03/13 11:39:58;;;;;;;5.88;3.47;;;13.80;54.60;;;;;;5020481;28;20045;-78
2022/03/13 11:42:25;;;;;;;5.82;3.42;;;13.80;54.60;;;;;;5013294;28;20061;-78
2022/03/13 11:44:52;;;;;;;6.05;3.42;;;13.80;54.60;;;;;;5028685;28;20053;-77
2022/03/13 11:47:22;;;;;;;5.03;2.85;;;13.80;54.60;;;;;;4996049;28;20048;-77
2022/03/13 11:49:49;;;;;;;5.70;4.00;;;13.80;54.60;;;;;;4998755;28;20049;-77
2022/03/13 11:52:17;;;;;;;6.05;3.58;;;13.80;54.60;;;;;;5030061;28;20053;-78
2022/03/13 11:54:48;;;;;;;5.88;3.33;;;13.90;54.60;;;;;;5011885;28;20041;-78
2022/03/13 11:57:26;;;;;;;7.07;3.78;;;13.90;54.50;;;;;;5011752;28;20107;-80
2022/03/13 12:00:12;;;;;;;4.90;3.38;;;13.90;54.50;;;;;;5028109;28;20048;-79
2022/03/13 12:02:48;;;;;;;6.63;3.50;;;14.00;54.50;;;;;;5033555;28;20744;-79
2022/03/13 12:05:31;;;;;;;6.10;3.38;;;14.00;54.50;;;;;;5020541;28;20056;-79
2022/03/13 12:08:08;;;;;;;6.57;3.25;;;14.10;54.50;;;;;;5019170;28;20049;-82
2022/03/13 12:10:43;;;;;;;4.80;2.70;;;14.10;54.50;;;;;;5022001;28;20123;-82
2022/03/13 12:13:11;;;;;;;6.18;3.00;;;14.20;54.60;;;;;;5019536;28;20083;-81
2022/03/13 12:15:44;;;;;;;5.72;3.05;;;14.20;54.60;;;;;;5012705;28;20136;-80
2022/03/13 12:18:27;;;;;;;5.43;2.85;;;14.30;54.50;;;;;;5035966;28;20044;-80
2022/03/13 12:21:11;;;;;;;4.78;2.83;;;14.30;54.40;;;;;;5035139;28;20503;-81
2022/03/13 12:23:43;;;;;;;6.57;3.10;;;14.40;54.30;;;;;;5005594;28;20037;-81
2022/03/13 12:26:28;;;;;;;4.43;2.90;;;14.40;54.30;;;;;;5022386;28;20124;-81
2022/03/13 12:28:57;;;;;;;4.57;2.67;;;14.50;54.20;;;;;;5038281;28;20037;-80
2022/03/13 12:31:37;;;;;;;5.28;3.35;;;14.60;54.20;;;;;;5056628;28;20041;-81
2022/03/13 12:34:27;;;;;;;4.47;2.42;;;14.60;54.20;;;;;;5033268;28;20045;-83
2022/03/13 12:37:02;;;;;;;4.93;3.13;;;14.60;54.20;;;;;;5055787;28;20096;-85
2022/03/13 12:39:31;;;;;;;6.68;3.70;;;14.60;54.20;;;;;;5019692;28;20060;-79
2022/03/13 12:42:04;;;;;;;8.00;3.60;;;14.60;54.20;;;;;;5035302;28;20033;-81
2022/03/13 12:44:33;;;;;;;4.65;3.17;;;14.70;54.20;;;;;;5000264;28;20422;-82
2022/03/13 12:47:00;;;;;;;5.82;2.95;;;14.60;54.20;;;;;;5014728;28;20067;-82
2022/03/13 12:49:34;;;;;;;5.53;3.20;;;14.70;54.20;;;;;;5016318;28;20120;-82
2022/03/13 12:52:01;;;;;;;6.35;2.80;;;14.80;54.10;;;;;;5018865;28;20055;-81
2022/03/13 12:54:30;;;;;;;5.68;3.00;;;14.80;54.10;;;;;;5018738;28;20103;-81
2022/03/13 13:00:57;;;;;;;;;;;;;;;;;;;;;
2022/03/13 13:03:52;;;;;;;4.15;2.05;;;14.80;54.10;;;;;;5044269;28;20045;-83
2022/03/13 13:06:40;;;;;;;4.55;2.85;;;14.90;54.20;;;;;;5028864;28;20567;-84
2022/03/13 13:09:28;;;;;;;6.65;2.50;;;15.00;54.20;;;;;;5025115;28;20412;-79
2022/03/13 13:11:56;;;;;;;6.18;2.88;;;14.90;54.20;;;;;;5034580;28;20045;-78
2022/03/13 13:14:27;;;;;;;5.32;2.70;;;15.00;54.10;;;;;;5033947;28;20116;-78
2022/03/13 13:16:56;;;;;;;5.55;2.85;;;15.00;54.10;;;;;;5042705;28;20068;-78
2022/03/13 13:19:24;;;;;;;4.80;2.47;;;15.10;54.00;;;;;;5025888;28;20060;-77
2022/03/13 13:22:03;;;;;;;4.93;2.83;;;15.20;54.00;;;;;;5032788;28;20429;-81
2022/03/13 13:24:45;;;;;;;4.35;2.45;;;15.30;53.90;;;;;;5047981;28;20041;-81
2022/03/13 13:27:30;;;;;;;5.22;2.58;;;15.20;53.90;;;;;;5041481;28;20397;-78
2022/03/13 13:29:58;;;;;;;3.85;2.05;;;15.30;54.00;;;;;;5034436;28;20531;-79
2022/03/13 13:32:32;;;;;;;4.68;2.45;;;15.30;54.10;;;;;;5017753;28;20219;-80
2022/03/13 13:35:10;;;;;;;4.07;2.35;;;15.30;54.00;;;;;;5036357;28;20048;-79
2022/03/13 13:37:57;;;;;;;4.47;2.53;;;15.40;54.10;;;;;;5045592;28;20740;-78
2022/03/13 13:40:38;;;;;;;5.32;2.60;;;15.40;54.00;;;;;;5059640;28;20385;-76
2022/03/13 13:43:11;;;;;;;3.85;1.65;;;15.50;54.00;;;;;;5034617;28;20041;-79
2022/03/13 13:45:41;;;;;;;5.15;2.83;;;15.50;54.00;;;;;;5043130;28;20045;-75
2022/03/13 13:48:49;;;;;;;4.53;2.13;;;15.50;54.00;;;;;;5040185;28;20053;-83
2022/03/13 13:51:25;;;;;;;8.00;2.85;;;15.60;54.00;;;;;;5029703;28;20043;-81